Ituiutaba, Brazil
Current Conditions -  °F | °C
As of 12:00 AM on Saturday 20 Dec 2014 (Local Time) from SBUL Reporting Station
Light Rain Light Rain  
Wind Chill: 70°   Ceiling: 10000
Heat Index: 70°   Visibility: 6mi
Dew Point: 64°   Wind: 5mph
Humidity: 83%   Direction: 340°NNW
Pressure: 29.97"   Gusts: NA
Location:  18.97°S, 49.46°W
Report Text: SBUL 200200Z 34004KT 9999 -RA SCT045 BKN100 21/18 Q1015
Loading
Personal Weather Stations






























Interactive Weather Map New forecast layout! Learn more

10-Day Weather Forecast

Advertisements
Track Severe Weather on mobile